Simon Bolivar, Colombia

11:43 AM COT en Octubre 21, 2014 (GMT -0500)
Simon Bolivar | Change Station
CLOSE
Current Station
Aeropuerto
Location: Santa Marta,
Altura: 13 ft
Estaciones meteorológicas cercanas

Alt 13 ft 11.12 °N, 74.23 °W | Updated 43 minutes ago

Scattered Clouds
Nubes dispersas
86 ° F
Sensación térmica 97 ° F
N
7
Viento Variable Viento desde OSO

Hoy
Alta -- | Baja -- ° F
--% Posibilidad de precipitaciones
Ayer
Alta -- | Baja -- ° F
Precip. -- pul
5:46 AM 5:36 PM
Creciente menguante, 5% visible
Presión 29.86 pul
Visibilidad 6.2 Millas
Nubes Baja 2000 ft
Nubes dispersas 7000 ft
Índice de calor 97 ° F
Punto de rocío 77 ° F
Humedad 74%
Precipitaciones 0.00 pul
Espesor de la nieve No disponible.
UV 12 de una escala de 12
Polen No disponible.
Calidad del aire No disponible.
Flu Activity No disponible.
METAR SKSM 211600Z 24006KT 9999 FEW020 SCT070 30/25 A2986

More Conditions Fewer Conditions

Presión 29.86 pul
Visibilidad 6.2 Millas
Nubes Baja 2000 ft
Nubes dispersas 7000 ft
Índice de calor 97 ° F
Punto de rocío 77 ° F
Humedad 74%
Precipitaciones 0.00 pul
Espesor de la nieve No disponible.
UV 12 de una escala de 12
Polen No disponible.
Calidad del aire No disponible.
Flu Activity No disponible.
METAR SKSM 211600Z 24006KT 9999 FEW020 SCT070 30/25 A2986

More Conditions Fewer Conditions

10-Day Weather Forecast

Almanac

Astronomía

Oct. 21, 2014 Salida Puesta
Hora real 5:46 AM COT 5:36 PM COT
Crepúsculo civil 5:25 AM COT 5:57 PM COT
Crepúsculo náutico 5:00 AM COT 6:22 PM COT
Crepúsculo astronómico 4:35 AM COT 6:47 PM COT
Luna 3:52 AM COT 4:09 PM COT
Horas de luz 12h 32m
Horas de luz
11h 49m
Tomorrow will be 0m 33s shorter.
Creciente menguante, 5% of the Moon is Illuminated
Hoy
Creciente menguante
Oct 23
Nueva
Oct 30
Cuarto creciente
Nov 6
Luna llena
Nov 14
Cuarto menguante

Extremos de hoy

Máximos del país Bajas del país

Community

WunderPhotos

Upload Photos

1,763,712 ¡fotos cargadas!

Nearby

Calidad del aire

Not available.

Grosos de nieve

Not available.

Actividad de terremotos

Ciudad Distance Mag. Tiempo y dato
No hay informes recientes de la actividad sísmica.
Magnitud mínima muestra es 2,5.

Temperaturas de aguas costeras

Lugar Temperatura
Sin partes meteorológicos de las estaciones

Estaciones meteorológicas cercanas